createdAt,value
2017-10-04T00:00:02.483Z,54.60
2017-10-04T00:02:31.707Z,54.30
2017-10-04T00:04:59.810Z,54.40
2017-10-04T00:07:27.887Z,54.40
2017-10-04T00:09:56.727Z,54.00
2017-10-04T00:12:24.842Z,54.50
2017-10-04T00:14:52.923Z,55.40
2017-10-04T00:17:21.410Z,54.70
2017-10-04T00:19:50.279Z,55.80
2017-10-04T00:22:18.359Z,54.00
2017-10-04T00:24:46.459Z,54.50
2017-10-04T00:29:43.982Z,54.60
2017-10-04T00:32:12.063Z,54.80
2017-10-04T00:34:40.236Z,55.10
2017-10-04T00:37:08.412Z,55.50
2017-10-04T00:39:36.607Z,54.00
2017-10-04T00:42:04.679Z,54.40
2017-10-04T00:44:32.831Z,54.70
2017-10-04T00:47:01.684Z,54.60
2017-10-04T00:49:29.779Z,55.30
2017-10-04T00:51:57.882Z,55.90
2017-10-04T00:54:27.466Z,56.80
2017-10-04T00:56:55.563Z,55.50
2017-10-04T00:59:23.643Z,55.50
2017-10-04T01:01:51.734Z,55.10
2017-10-04T01:04:20.578Z,56.00
2017-10-04T01:06:49.070Z,54.80
2017-10-04T01:09:17.939Z,56.10
2017-10-04T01:11:46.426Z,55.20
2017-10-04T01:14:14.515Z,56.20
2017-10-04T01:16:42.646Z,56.10
2017-10-04T01:19:11.854Z,56.70
2017-10-04T01:21:39.941Z,56.70
2017-10-04T01:24:08.036Z,56.80
2017-10-04T01:26:36.102Z,56.80
2017-10-04T01:29:04.190Z,57.40
2017-10-04T01:31:32.261Z,57.40
2017-10-04T01:34:00.363Z,57.90
2017-10-04T01:38:58.922Z,57.90
2017-10-04T01:41:27.014Z,58.20
2017-10-04T01:43:56.596Z,57.00
2017-10-04T01:46:24.693Z,57.50
2017-10-04T01:48:53.531Z,58.50
2017-10-04T01:51:21.602Z,58.30
2017-10-04T01:53:49.689Z,57.80
2017-10-04T01:56:17.786Z,58.80
2017-10-04T01:58:46.642Z,59.70
2017-10-04T02:01:15.110Z,59.40
2017-10-04T02:03:43.194Z,58.60
2017-10-04T02:06:11.690Z,59.00
2017-10-04T02:08:39.772Z,59.00
2017-10-04T02:11:07.842Z,59.00
2017-10-04T02:13:37.442Z,59.40
2017-10-04T02:16:05.513Z,59.00
2017-10-04T02:18:33.630Z,58.90
2017-10-04T02:21:02.469Z,58.50
2017-10-04T02:23:31.686Z,58.40
2017-10-04T02:25:59.773Z,58.00
2017-10-04T02:28:28.609Z,59.00
2017-10-04T02:30:56.733Z,58.80
2017-10-04T02:35:54.158Z,58.70
2017-10-04T02:38:22.258Z,59.10
2017-10-04T02:40:50.329Z,60.50
2017-10-04T02:43:18.794Z,60.70
2017-10-04T02:45:46.885Z,60.50
2017-10-04T02:48:14.962Z,61.20
2017-10-04T02:50:43.054Z,60.50
2017-10-04T02:53:11.894Z,60.70
2017-10-04T02:55:41.517Z,61.50
2017-10-04T02:58:09.581Z,60.60
2017-10-04T03:00:37.658Z,60.90
2017-10-04T03:03:05.750Z,60.60
2017-10-04T03:05:34.237Z,60.10
2017-10-04T03:08:02.313Z,60.60
2017-10-04T03:10:30.385Z,60.30
2017-10-04T03:12:58.870Z,59.80
2017-10-04T03:15:26.946Z,60.80
2017-10-04T03:17:55.041Z,61.70
2017-10-04T03:20:23.893Z,62.30
2017-10-04T03:22:52.050Z,62.70
2017-10-04T03:25:20.225Z,63.40
2017-10-04T03:27:48.398Z,63.80
2017-10-04T03:30:16.575Z,63.20
2017-10-04T03:32:45.085Z,64.10
2017-10-04T03:35:14.049Z,64.80
2017-10-04T03:37:42.889Z,64.00
2017-10-04T03:40:11.413Z,64.70
2017-10-04T03:42:39.910Z,65.80
2017-10-04T03:45:08.083Z,66.60
2017-10-04T03:47:36.954Z,65.50
2017-10-04T03:50:05.054Z,65.20
2017-10-04T03:52:33.120Z,64.40
2017-10-04T03:55:01.614Z,65.10
2017-10-04T03:57:29.718Z,64.40
2017-10-04T03:59:58.557Z,65.90
2017-10-04T04:02:26.630Z,65.00
2017-10-04T04:04:55.201Z,64.00
2017-10-04T04:07:23.627Z,64.60
2017-10-04T04:09:52.467Z,65.70
2017-10-04T04:12:20.559Z,66.20
2017-10-04T04:14:48.662Z,65.70
2017-10-04T04:19:46.462Z,66.60
2017-10-04T04:22:14.578Z,66.00
2017-10-04T04:24:44.149Z,66.60
2017-10-04T04:27:12.230Z,66.60
2017-10-04T04:29:40.338Z,66.50
2017-10-04T04:32:08.410Z,67.80
2017-10-04T04:34:36.518Z,67.70
2017-10-04T04:39:33.940Z,67.90
2017-10-04T04:42:02.033Z,67.10
2017-10-04T04:44:30.102Z,66.50
2017-10-04T04:46:58.197Z,67.60
2017-10-04T04:49:26.662Z,67.20
2017-10-04T04:51:54.757Z,68.30
2017-10-04T04:54:23.217Z,70.60
2017-10-04T04:56:51.689Z,71.70
2017-10-04T04:59:19.770Z,72.10
2017-10-04T05:01:47.842Z,73.20
2017-10-04T05:09:14.629Z,75.40
2017-10-04T05:11:42.705Z,73.90
2017-10-04T05:14:11.538Z,74.50
2017-10-04T05:19:09.019Z,73.20
2017-10-04T05:21:37.858Z,74.40
2017-10-04T05:24:07.446Z,74.00
2017-10-04T05:26:35.509Z,74.10
2017-10-04T05:29:03.598Z,75.50
2017-10-04T05:31:31.691Z,76.00
2017-10-04T05:33:59.796Z,75.50
2017-10-04T05:36:27.918Z,75.60
2017-10-04T05:38:57.495Z,77.60
2017-10-04T05:41:25.766Z,77.00
2017-10-04T05:43:54.621Z,77.60
2017-10-04T05:46:23.458Z,77.30
2017-10-04T05:48:51.522Z,77.80
2017-10-04T05:51:19.614Z,77.80
2017-10-04T05:53:47.681Z,78.40
2017-10-04T05:56:16.516Z,79.40
2017-10-04T05:58:44.997Z,79.70
2017-10-04T06:01:13.457Z,79.40
2017-10-04T06:03:41.546Z,79.80
2017-10-04T06:06:10.422Z,79.50
2017-10-04T06:08:38.485Z,79.30
2017-10-04T06:11:06.562Z,78.80
2017-10-04T06:13:35.058Z,78.40
2017-10-04T06:16:03.898Z,78.70
2017-10-04T06:18:31.965Z,77.80
2017-10-04T06:21:00.050Z,77.20
2017-10-04T06:23:28.885Z,76.80
2017-10-04T06:25:57.746Z,75.30
2017-10-04T06:28:27.325Z,75.00
2017-10-04T06:30:55.425Z,73.50
2017-10-04T06:33:23.501Z,73.10
2017-10-04T06:35:51.977Z,73.80
2017-10-04T06:38:20.086Z,73.70
2017-10-04T06:40:48.930Z,72.50
2017-10-04T06:43:17.010Z,72.10
2017-10-04T06:45:45.110Z,71.50
2017-10-04T06:48:13.954Z,70.60
2017-10-04T06:50:42.793Z,70.70
2017-10-04T06:53:11.654Z,70.70
2017-10-04T06:55:40.122Z,70.40
2017-10-04T06:58:08.616Z,70.30
2017-10-04T07:00:36.692Z,70.00
2017-10-04T07:03:04.781Z,70.40
2017-10-04T07:05:32.874Z,70.70
2017-10-04T07:08:01.737Z,69.90
2017-10-04T07:10:29.809Z,70.40
2017-10-04T07:12:57.897Z,71.00
2017-10-04T07:15:26.365Z,70.80
2017-10-04T07:17:54.457Z,70.20
2017-10-04T07:20:23.322Z,71.30
2017-10-04T07:22:51.406Z,71.60
2017-10-04T07:25:19.474Z,70.70
2017-10-04T07:27:48.358Z,70.50
2017-10-04T07:30:17.941Z,69.60
2017-10-04T07:32:46.421Z,68.50
2017-10-04T07:35:14.538Z,67.40
2017-10-04T07:37:43.393Z,65.40
2017-10-04T07:40:11.493Z,62.70
2017-10-04T07:42:40.338Z,60.50
2017-10-04T07:45:09.177Z,60.80
2017-10-04T07:47:38.784Z,61.00
2017-10-04T07:50:06.854Z,58.60
2017-10-04T07:52:35.708Z,59.70
2017-10-04T07:55:03.782Z,57.40
2017-10-04T07:57:33.678Z,58.20
2017-10-04T08:00:01.750Z,58.30
2017-10-04T08:02:30.614Z,58.60
2017-10-04T08:04:59.458Z,56.70
2017-10-04T08:07:27.557Z,56.90
2017-10-04T08:09:56.398Z,57.00
2017-10-04T08:12:24.494Z,57.50
2017-10-04T08:14:52.573Z,57.50
2017-10-04T08:17:21.422Z,56.60
2017-10-04T08:19:49.522Z,57.40
2017-10-04T08:22:17.598Z,58.20
2017-10-04T08:24:46.434Z,59.20
2017-10-04T08:27:14.531Z,58.50
2017-10-04T08:29:42.626Z,57.80
2017-10-04T08:32:11.466Z,57.00
2017-10-04T08:34:39.545Z,56.30
2017-10-04T08:37:08.766Z,55.80
2017-10-04T08:39:36.846Z,55.80
2017-10-04T08:42:05.022Z,55.00
2017-10-04T08:44:33.839Z,55.10
2017-10-04T08:47:13.837Z,52.20
2017-10-04T08:49:41.918Z,49.50
2017-10-04T08:52:09.989Z,49.10
2017-10-04T08:54:38.077Z,51.40
2017-10-04T08:57:06.166Z,51.80
2017-10-04T08:59:34.237Z,52.70
2017-10-04T09:02:02.317Z,52.70
2017-10-04T09:04:42.311Z,50.40
2017-10-04T09:07:10.402Z,48.60
2017-10-04T09:09:38.478Z,47.20
2017-10-04T09:12:06.569Z,45.10
2017-10-04T09:14:34.645Z,44.00
2017-10-04T09:17:03.505Z,43.40
2017-10-04T09:19:31.597Z,42.30
2017-10-04T09:21:59.700Z,40.30
2017-10-04T09:24:27.765Z,40.30
2017-10-04T09:26:55.838Z,41.20
2017-10-04T09:29:24.310Z,41.50
2017-10-04T09:31:52.406Z,42.20
2017-10-04T09:34:20.506Z,43.30
2017-10-04T09:36:48.577Z,42.10
2017-10-04T09:39:16.649Z,38.90
2017-10-04T09:41:44.742Z,37.40
2017-10-04T09:44:12.818Z,37.40
2017-10-04T09:46:41.678Z,35.60
2017-10-04T09:49:10.538Z,35.60
2017-10-04T09:51:38.622Z,34.60
2017-10-04T09:54:06.729Z,34.70
2017-10-04T09:56:34.830Z,35.60
2017-10-04T09:59:02.898Z,36.50
2017-10-04T10:01:31.762Z,36.00
2017-10-04T10:03:59.841Z,37.90
2017-10-04T10:06:27.930Z,37.60
2017-10-04T10:08:56.790Z,38.70
2017-10-04T10:11:24.861Z,37.90
2017-10-04T10:13:52.963Z,38.90
2017-10-04T10:18:50.382Z,39.30
2017-10-04T10:21:19.614Z,39.10
2017-10-04T10:23:48.445Z,40.30
2017-10-04T10:26:16.533Z,38.70
2017-10-04T10:28:44.604Z,38.60
2017-10-04T10:31:12.694Z,38.30
2017-10-04T10:33:41.530Z,38.00
2017-10-04T10:36:09.613Z,37.40
2017-10-04T10:38:37.727Z,36.20
2017-10-04T10:43:35.200Z,35.70
2017-10-04T10:46:04.054Z,36.10
2017-10-04T10:48:32.638Z,36.60
2017-10-04T10:51:01.483Z,36.30
2017-10-04T10:53:29.574Z,35.80
2017-10-04T10:55:58.777Z,36.00
2017-10-04T10:58:28.018Z,36.20
2017-10-04T11:00:56.486Z,35.80
2017-10-04T11:03:24.958Z,34.80
2017-10-04T11:05:53.458Z,34.60
2017-10-04T11:08:21.536Z,34.30
2017-10-04T11:10:49.615Z,32.70
2017-10-04T11:13:18.106Z,33.30
2017-10-04T11:15:46.946Z,32.30
2017-10-04T11:18:15.018Z,32.60
2017-10-04T11:20:43.105Z,33.80
2017-10-04T11:23:11.569Z,31.30
2017-10-04T11:25:39.673Z,31.00
2017-10-04T11:28:07.741Z,31.20
2017-10-04T11:30:35.821Z,31.90
2017-10-04T11:33:03.913Z,31.30
2017-10-04T11:35:32.749Z,30.40
2017-10-04T11:38:01.609Z,29.20
2017-10-04T11:40:29.714Z,29.30
2017-10-04T11:42:57.786Z,27.60
2017-10-04T11:45:26.617Z,26.30
2017-10-04T11:47:55.482Z,25.50
2017-10-04T11:50:23.555Z,24.70
2017-10-04T11:52:51.625Z,24.50
2017-10-04T11:57:49.807Z,22.80
2017-10-04T12:00:18.285Z,23.70
2017-10-04T12:02:46.362Z,25.30
2017-10-04T12:05:14.461Z,25.90
2017-10-04T12:07:42.530Z,27.00
2017-10-04T12:10:12.113Z,27.70
2017-10-04T12:12:40.209Z,28.40
2017-10-04T12:15:08.279Z,29.30
2017-10-04T12:17:36.349Z,29.80
2017-10-04T12:20:04.858Z,30.30
2017-10-04T12:22:33.721Z,30.60
2017-10-04T12:25:01.797Z,30.10
2017-10-04T12:27:30.260Z,31.00
2017-10-04T12:29:58.354Z,30.60
2017-10-04T12:32:26.446Z,30.40
2017-10-04T12:34:55.286Z,29.70
2017-10-04T12:37:23.394Z,30.00
2017-10-04T12:39:51.486Z,30.50
2017-10-04T12:42:20.330Z,30.90
2017-10-04T12:44:48.425Z,29.90
2017-10-04T12:47:16.499Z,29.70
2017-10-04T12:49:44.574Z,30.70
2017-10-04T12:52:13.068Z,30.70
2017-10-04T12:54:41.534Z,28.40
2017-10-04T12:57:09.599Z,27.50
2017-10-04T12:59:39.193Z,27.80
2017-10-04T13:02:07.270Z,25.40
2017-10-04T13:04:35.378Z,24.90
2017-10-04T13:07:04.212Z,23.10
2017-10-04T13:09:32.294Z,21.90
2017-10-04T13:12:00.386Z,21.70
2017-10-04T13:14:28.461Z,20.50
2017-10-04T13:16:56.572Z,20.40
2017-10-04T13:19:24.646Z,20.60
2017-10-04T13:21:52.714Z,20.90
2017-10-04T13:24:21.566Z,19.40
2017-10-04T13:26:49.642Z,20.20
2017-10-04T13:29:18.137Z,22.10
2017-10-04T13:31:46.610Z,23.10
2017-10-04T13:34:14.689Z,24.00
2017-10-04T13:36:43.221Z,23.60
2017-10-04T13:39:12.413Z,24.60
2017-10-04T13:41:40.550Z,23.90
2017-10-04T13:44:09.401Z,23.70
2017-10-04T13:46:37.507Z,23.40
2017-10-04T13:49:06.350Z,23.80
2017-10-04T13:51:35.569Z,24.50
2017-10-04T13:54:03.673Z,25.80
2017-10-04T13:56:32.510Z,27.00
2017-10-04T13:59:00.602Z,27.40
2017-10-04T14:01:28.677Z,27.50
2017-10-04T14:03:56.774Z,28.00
2017-10-04T14:08:54.169Z,28.60
2017-10-04T14:11:22.667Z,29.20
2017-10-04T14:13:51.529Z,29.30
2017-10-04T14:16:20.374Z,29.30
2017-10-04T14:18:48.501Z,29.20
2017-10-04T14:21:16.573Z,29.10
2017-10-04T14:23:44.685Z,28.80
2017-10-04T14:26:12.753Z,28.80
2017-10-04T14:28:41.649Z,28.40
2017-10-04T14:31:10.133Z,28.10
2017-10-04T14:33:38.226Z,28.50
2017-10-04T14:36:07.826Z,29.00
2017-10-04T14:38:35.906Z,29.20
2017-10-04T14:41:04.002Z,29.00
2017-10-04T14:43:32.869Z,30.20
2017-10-04T14:46:01.710Z,30.00
2017-10-04T14:48:30.174Z,30.70
2017-10-04T14:50:58.278Z,30.00
2017-10-04T14:53:26.746Z,30.30
2017-10-04T14:55:54.818Z,30.00
2017-10-04T14:58:22.937Z,30.20
2017-10-04T15:00:52.522Z,30.90
2017-10-04T15:03:20.589Z,31.00
2017-10-04T15:05:49.314Z,30.70
2017-10-04T15:08:17.381Z,31.70
2017-10-04T15:10:45.469Z,30.50
2017-10-04T15:13:15.121Z,31.50
2017-10-04T15:15:44.326Z,32.70
2017-10-04T15:18:13.179Z,33.90
2017-10-04T15:20:42.033Z,31.10
2017-10-04T15:23:10.102Z,31.80
2017-10-04T15:25:38.206Z,31.90
2017-10-04T15:28:06.298Z,32.60
2017-10-04T15:30:34.369Z,32.30
2017-10-04T15:33:02.858Z,33.10
2017-10-04T15:35:31.693Z,33.50
2017-10-04T15:37:59.790Z,33.00
2017-10-04T15:40:28.253Z,33.30
2017-10-04T15:42:56.323Z,33.40
2017-10-04T15:45:24.410Z,33.40
2017-10-04T15:47:52.939Z,33.90
2017-10-04T15:50:21.446Z,33.90
2017-10-04T15:52:49.912Z,34.70
2017-10-04T15:55:18.377Z,34.40
2017-10-04T15:57:46.462Z,34.70
2017-10-04T16:00:14.542Z,34.00
2017-10-04T16:02:42.650Z,34.10
2017-10-04T16:05:11.491Z,34.80
2017-10-04T16:10:09.577Z,35.70
2017-10-04T16:12:38.522Z,35.60
2017-10-04T16:15:07.382Z,36.70
2017-10-04T16:17:35.482Z,36.60
2017-10-04T16:20:03.550Z,37.10
2017-10-04T16:22:32.398Z,37.10
2017-10-04T16:25:00.498Z,37.20
2017-10-04T16:27:28.590Z,37.10
2017-10-04T16:29:57.430Z,38.00
2017-10-04T16:32:25.513Z,37.10
2017-10-04T16:34:53.598Z,37.70
2017-10-04T16:37:21.678Z,38.10
2017-10-04T16:39:49.785Z,38.10
2017-10-04T16:42:18.258Z,37.70
2017-10-04T16:44:46.734Z,38.60
2017-10-04T16:49:44.190Z,38.60
2017-10-04T16:52:12.332Z,38.70
2017-10-04T16:54:41.502Z,38.60
2017-10-04T16:57:09.595Z,38.50
2017-10-04T16:59:37.682Z,38.50
2017-10-04T17:02:06.558Z,38.60
2017-10-04T17:04:34.622Z,38.20
2017-10-04T17:07:03.863Z,39.30
2017-10-04T17:09:31.939Z,38.60
2017-10-04T17:12:00.050Z,39.40
2017-10-04T17:14:28.134Z,38.90
2017-10-04T17:16:56.606Z,38.90
2017-10-04T17:19:24.710Z,39.40
2017-10-04T17:21:53.914Z,40.30
2017-10-04T17:24:22.030Z,39.90
2017-10-04T17:26:51.440Z,39.90
2017-10-04T17:29:20.268Z,40.60
2017-10-04T17:31:49.126Z,40.10
2017-10-04T17:34:17.965Z,41.10
2017-10-04T17:36:46.459Z,40.40
2017-10-04T17:39:14.530Z,40.80
2017-10-04T17:41:42.622Z,40.70
2017-10-04T17:44:11.454Z,41.10
2017-10-04T17:46:39.570Z,41.20
2017-10-04T17:49:07.642Z,41.00
2017-10-04T17:51:35.761Z,41.60
2017-10-04T17:54:03.854Z,41.30
2017-10-04T17:56:31.933Z,41.30
2017-10-04T17:59:00.025Z,41.50
2017-10-04T18:01:29.270Z,41.90
2017-10-04T18:03:58.585Z,41.60
2017-10-04T18:06:26.685Z,41.20
2017-10-04T18:08:54.758Z,41.80
2017-10-04T18:11:22.826Z,42.20
2017-10-04T18:13:51.689Z,42.10
2017-10-04T18:16:19.771Z,42.30
2017-10-04T18:18:47.870Z,42.50
2017-10-04T18:21:16.733Z,42.50
2017-10-04T18:23:44.838Z,42.90
2017-10-04T18:26:13.312Z,43.00
2017-10-04T18:28:41.382Z,43.20
2017-10-04T18:31:09.470Z,43.50
2017-10-04T18:33:37.550Z,43.30
2017-10-04T18:36:05.650Z,43.50
2017-10-04T18:38:34.485Z,43.80
2017-10-04T18:41:03.322Z,44.10
2017-10-04T18:43:32.197Z,45.20
2017-10-04T18:46:00.269Z,44.00
2017-10-04T18:48:28.358Z,44.70
2017-10-04T18:50:57.189Z,45.60
2017-10-04T18:53:25.321Z,45.20
2017-10-04T18:55:54.268Z,46.00
2017-10-04T18:58:22.467Z,46.10
2017-10-04T19:00:50.549Z,46.90
2017-10-04T19:03:18.613Z,45.80
2017-10-04T19:05:46.681Z,45.90
2017-10-04T19:08:14.793Z,46.10
2017-10-04T19:10:42.870Z,46.30
2017-10-04T19:13:12.081Z,46.40
2017-10-04T19:15:40.193Z,47.00
2017-10-04T19:18:09.769Z,47.50
2017-10-04T19:20:37.846Z,47.30
2017-10-04T19:23:05.938Z,47.20
2017-10-04T19:25:34.013Z,47.30
2017-10-04T19:28:02.111Z,47.60
2017-10-04T19:30:31.698Z,46.90
2017-10-04T19:32:59.774Z,47.30
2017-10-04T19:35:28.636Z,47.20
2017-10-04T19:37:56.717Z,47.20
2017-10-04T19:40:24.874Z,47.30
2017-10-04T19:42:52.942Z,47.60
2017-10-04T19:45:22.150Z,48.30
2017-10-04T19:47:50.241Z,47.90
2017-10-04T19:50:18.314Z,47.50
2017-10-04T19:52:46.802Z,47.90
2017-10-04T19:55:15.059Z,47.80
2017-10-04T19:57:43.151Z,48.20
2017-10-04T20:00:11.637Z,47.80
2017-10-04T20:02:39.713Z,48.00
2017-10-04T20:05:08.206Z,47.90
2017-10-04T20:07:37.041Z,48.60
2017-10-04T20:10:05.514Z,48.20
2017-10-04T20:12:33.606Z,48.50
2017-10-04T20:15:01.677Z,48.30
2017-10-04T20:17:29.769Z,48.40
2017-10-04T20:19:58.238Z,48.40
2017-10-04T20:22:26.341Z,48.60
2017-10-04T20:24:55.174Z,48.90
2017-10-04T20:27:23.246Z,48.90
2017-10-04T20:29:52.473Z,49.70
2017-10-04T20:32:20.543Z,49.30
2017-10-04T20:34:48.626Z,48.30
2017-10-04T20:39:46.827Z,48.10
2017-10-04T20:42:14.889Z,49.20
2017-10-04T20:44:42.994Z,48.30
2017-10-04T20:47:11.829Z,48.10
2017-10-04T20:49:39.901Z,48.30
2017-10-04T20:52:08.381Z,48.70
2017-10-04T20:54:36.458Z,49.10
2017-10-04T20:57:04.942Z,48.50
2017-10-04T20:59:33.048Z,48.50
2017-10-04T21:02:01.514Z,48.40
2017-10-04T21:06:59.386Z,48.80
2017-10-04T21:15:39.079Z,48.90
2017-10-04T21:18:07.151Z,49.20
2017-10-04T21:20:35.257Z,48.40
2017-10-04T21:25:33.442Z,48.30
2017-10-04T21:28:01.579Z,48.80
2017-10-04T21:30:29.655Z,48.80
2017-10-04T21:32:57.734Z,49.30
2017-10-04T21:35:25.839Z,50.00
2017-10-04T21:37:53.917Z,50.20
2017-10-04T21:40:22.023Z,50.40
2017-10-04T21:42:50.093Z,49.60
2017-10-04T21:45:18.195Z,49.40
2017-10-04T21:47:46.266Z,50.40
2017-10-04T21:50:14.358Z,50.40
2017-10-04T21:52:43.946Z,51.60
2017-10-04T21:55:12.038Z,50.20
2017-10-04T21:57:40.114Z,51.00
2017-10-04T22:00:08.214Z,51.00
2017-10-04T22:02:37.054Z,51.10
2017-10-04T22:05:05.135Z,50.70
2017-10-04T22:07:33.226Z,50.90
2017-10-04T22:10:01.300Z,51.70
2017-10-04T22:12:29.394Z,50.20
2017-10-04T22:14:58.243Z,50.20
2017-10-04T22:17:26.735Z,50.80
2017-10-04T22:19:54.809Z,50.50
2017-10-04T22:22:22.885Z,50.70
2017-10-04T22:24:50.994Z,50.40
2017-10-04T22:27:19.829Z,51.30
2017-10-04T22:29:48.675Z,50.90
2017-10-04T22:32:16.781Z,50.80
2017-10-04T22:34:44.854Z,50.70
2017-10-04T22:37:12.938Z,50.80
2017-10-04T22:39:41.039Z,50.80
2017-10-04T22:42:09.122Z,50.70
2017-10-04T22:44:37.607Z,50.80
2017-10-04T22:47:06.851Z,50.90
2017-10-04T22:49:34.922Z,51.00
2017-10-04T22:52:02.998Z,51.10
2017-10-04T22:54:31.111Z,51.40
2017-10-04T22:56:59.958Z,52.30
2017-10-04T22:59:28.034Z,52.30
2017-10-04T23:01:56.129Z,52.10
2017-10-04T23:04:24.211Z,52.50
2017-10-04T23:06:52.278Z,51.90
2017-10-04T23:09:20.387Z,52.30
2017-10-04T23:11:48.463Z,51.80
2017-10-04T23:14:16.936Z,52.50
2017-10-04T23:16:45.042Z,52.50
2017-10-04T23:19:13.131Z,53.10
2017-10-04T23:21:41.199Z,53.60
2017-10-04T23:24:09.294Z,54.10
2017-10-04T23:26:37.375Z,54.30
2017-10-04T23:29:06.234Z,55.40
2017-10-04T23:31:34.318Z,54.70
2017-10-04T23:34:02.422Z,54.70
2017-10-04T23:36:31.275Z,55.20
2017-10-04T23:38:59.355Z,54.70
2017-10-04T23:41:27.442Z,54.90
2017-10-04T23:43:55.566Z,54.90
2017-10-04T23:46:23.663Z,54.60
2017-10-04T23:48:52.132Z,54.80
2017-10-04T23:51:20.222Z,54.80
2017-10-04T23:53:48.321Z,55.40
2017-10-04T23:56:17.162Z,55.50
2017-10-04T23:58:46.399Z,56.00
